Weather at Keningau Airport

Public forecast

Using degrees Celsius for public forecast. Weather courtesy of forecast.io.

Closest aviation weather report (METAR) to Keningau Airport

Closest report is Kota Kinabalu International Airport, 35.4 nm (65.6 km) N. Retrieved 2022/07/01 16:30 UTC (3 minutes ago):

WBKK 011630Z 11005KT 9999 FEW014 26/23 Q1007 NOSIG

Closest aviation forecast (TAF) to Keningau Airport

Closest forecast is Kota Kinabalu International Airport, 35.4 nm (65.6 km) N. Retrieved 2022/07/01 12:15 UTC (4 hours ago):

TAF WBKK 011100Z 0112/0212 11005KT 9999 FEW014 BECMG 0202/0204 23005KT